sensor_id;sensor_type;location;lat;lon;timestamp;temperature;humidity
47482;DHT22;33219;47.410;9.730;2023-11-22T00:01:35;6.30;99.90
47482;DHT22;33219;47.410;9.730;2023-11-22T00:04:02;6.40;99.90
47482;DHT22;33219;47.410;9.730;2023-11-22T00:06:29;6.40;99.90
47482;DHT22;33219;47.410;9.730;2023-11-22T00:08:56;6.40;99.90
47482;DHT22;33219;47.410;9.730;2023-11-22T00:11:23;6.40;99.90
47482;DHT22;33219;47.410;9.730;2023-11-22T00:13:51;6.40;99.90
47482;DHT22;33219;47.410;9.730;2023-11-22T00:16:19;6.40;99.90
47482;DHT22;33219;47.410;9.730;2023-11-22T00:18:46;6.30;99.90
47482;DHT22;33219;47.410;9.730;2023-11-22T00:21:13;6.30;99.90
47482;DHT22;33219;47.410;9.730;2023-11-22T00:23:40;6.30;99.90
47482;DHT22;33219;47.410;9.730;2023-11-22T00:26:07;6.20;99.90
47482;DHT22;33219;47.410;9.730;2023-11-22T00:28:34;6.20;99.90
47482;DHT22;33219;47.410;9.730;2023-11-22T00:31:01;6.20;99.90
47482;DHT22;33219;47.410;9.730;2023-11-22T00:33:27;6.20;99.90
47482;DHT22;33219;47.410;9.730;2023-11-22T00:35:54;6.20;99.90
47482;DHT22;33219;47.410;9.730;2023-11-22T00:38:22;6.10;99.90
47482;DHT22;33219;47.410;9.730;2023-11-22T00:40:49;6.20;99.90
47482;DHT22;33219;47.410;9.730;2023-11-22T00:43:16;6.20;99.90
47482;DHT22;33219;47.410;9.730;2023-11-22T00:45:45;6.10;99.90
47482;DHT22;33219;47.410;9.730;2023-11-22T00:48:12;6.10;99.90
47482;DHT22;33219;47.410;9.730;2023-11-22T00:50:39;6.10;99.90
47482;DHT22;33219;47.410;9.730;2023-11-22T00:53:05;6.00;99.90
47482;DHT22;33219;47.410;9.730;2023-11-22T00:55:32;6.00;99.90
47482;DHT22;33219;47.410;9.730;2023-11-22T00:58:00;6.00;99.90
47482;DHT22;33219;47.410;9.730;2023-11-22T01:00:28;5.90;99.90
47482;DHT22;33219;47.410;9.730;2023-11-22T01:02:55;6.00;99.90
47482;DHT22;33219;47.410;9.730;2023-11-22T01:05:22;5.90;99.90
47482;DHT22;33219;47.410;9.730;2023-11-22T01:07:50;5.90;99.90
47482;DHT22;33219;47.410;9.730;2023-11-22T01:10:17;6.00;99.90
47482;DHT22;33219;47.410;9.730;2023-11-22T01:12:44;5.90;99.90
47482;DHT22;33219;47.410;9.730;2023-11-22T01:15:10;5.90;99.90
47482;DHT22;33219;47.410;9.730;2023-11-22T01:17:37;6.00;99.90
47482;DHT22;33219;47.410;9.730;2023-11-22T01:20:05;5.90;99.90
47482;DHT22;33219;47.410;9.730;2023-11-22T01:22:34;6.00;99.90
47482;DHT22;33219;47.410;9.730;2023-11-22T01:25:01;6.00;99.90
47482;DHT22;33219;47.410;9.730;2023-11-22T01:27:28;6.00;99.90
47482;DHT22;33219;47.410;9.730;2023-11-22T01:29:54;6.00;99.90
47482;DHT22;33219;47.410;9.730;2023-11-22T01:32:21;6.00;99.90
47482;DHT22;33219;47.410;9.730;2023-11-22T01:34:48;6.10;99.90
47482;DHT22;33219;47.410;9.730;2023-11-22T01:37:15;6.10;99.90
47482;DHT22;33219;47.410;9.730;2023-11-22T01:39:42;6.10;99.90
47482;DHT22;33219;47.410;9.730;2023-11-22T01:42:09;6.10;99.90
47482;DHT22;33219;47.410;9.730;2023-11-22T01:44:37;6.10;99.90
47482;DHT22;33219;47.410;9.730;2023-11-22T01:47:04;6.10;99.90
47482;DHT22;33219;47.410;9.730;2023-11-22T01:49:31;6.10;99.90
47482;DHT22;33219;47.410;9.730;2023-11-22T01:51:58;6.10;99.90
47482;DHT22;33219;47.410;9.730;2023-11-22T01:54:25;6.10;99.90
47482;DHT22;33219;47.410;9.730;2023-11-22T01:56:52;6.10;99.90
47482;DHT22;33219;47.410;9.730;2023-11-22T01:59:19;6.10;99.90
47482;DHT22;33219;47.410;9.730;2023-11-22T02:01:46;6.10;99.90
47482;DHT22;33219;47.410;9.730;2023-11-22T02:04:13;6.10;99.90
47482;DHT22;33219;47.410;9.730;2023-11-22T02:06:40;6.10;99.90
47482;DHT22;33219;47.410;9.730;2023-11-22T02:09:07;6.10;99.90
47482;DHT22;33219;47.410;9.730;2023-11-22T02:11:36;6.10;99.90
47482;DHT22;33219;47.410;9.730;2023-11-22T02:14:02;6.00;99.90
47482;DHT22;33219;47.410;9.730;2023-11-22T02:16:30;6.10;99.90
47482;DHT22;33219;47.410;9.730;2023-11-22T02:18:56;6.00;99.90
47482;DHT22;33219;47.410;9.730;2023-11-22T02:21:23;6.00;99.90
47482;DHT22;33219;47.410;9.730;2023-11-22T02:23:50;6.00;99.90
47482;DHT22;33219;47.410;9.730;2023-11-22T02:26:17;6.00;99.90
47482;DHT22;33219;47.410;9.730;2023-11-22T02:28:44;6.00;99.90
47482;DHT22;33219;47.410;9.730;2023-11-22T02:31:11;6.00;99.90
47482;DHT22;33219;47.410;9.730;2023-11-22T02:33:38;6.00;99.90
47482;DHT22;33219;47.410;9.730;2023-11-22T02:36:05;6.00;99.90
47482;DHT22;33219;47.410;9.730;2023-11-22T02:38:33;5.90;99.90
47482;DHT22;33219;47.410;9.730;2023-11-22T02:41:01;5.90;99.90
47482;DHT22;33219;47.410;9.730;2023-11-22T02:43:30;5.90;99.90
47482;DHT22;33219;47.410;9.730;2023-11-22T02:45:57;5.90;99.90
47482;DHT22;33219;47.410;9.730;2023-11-22T02:48:24;5.90;99.90
47482;DHT22;33219;47.410;9.730;2023-11-22T02:50:50;5.90;99.90
47482;DHT22;33219;47.410;9.730;2023-11-22T02:53:19;5.90;99.90
47482;DHT22;33219;47.410;9.730;2023-11-22T02:55:46;5.90;99.90
47482;DHT22;33219;47.410;9.730;2023-11-22T02:58:13;5.90;99.90
47482;DHT22;33219;47.410;9.730;2023-11-22T03:00:40;5.90;99.90
47482;DHT22;33219;47.410;9.730;2023-11-22T03:03:07;5.90;99.90
47482;DHT22;33219;47.410;9.730;2023-11-22T03:05:35;5.90;99.90
47482;DHT22;33219;47.410;9.730;2023-11-22T03:08:07;5.90;99.90
47482;DHT22;33219;47.410;9.730;2023-11-22T03:10:35;5.90;99.90
47482;DHT22;33219;47.410;9.730;2023-11-22T03:13:02;6.00;99.90
47482;DHT22;33219;47.410;9.730;2023-11-22T03:15:30;6.00;99.90
47482;DHT22;33219;47.410;9.730;2023-11-22T03:17:57;6.00;99.90
47482;DHT22;33219;47.410;9.730;2023-11-22T03:20:24;6.10;99.90
47482;DHT22;33219;47.410;9.730;2023-11-22T03:22:52;6.00;99.90
47482;DHT22;33219;47.410;9.730;2023-11-22T03:25:19;6.10;99.90
47482;DHT22;33219;47.410;9.730;2023-11-22T03:27:46;6.10;99.90
47482;DHT22;33219;47.410;9.730;2023-11-22T03:30:13;6.10;99.90
47482;DHT22;33219;47.410;9.730;2023-11-22T03:32:40;6.10;99.90
47482;DHT22;33219;47.410;9.730;2023-11-22T03:35:07;6.10;99.90
47482;DHT22;33219;47.410;9.730;2023-11-22T03:37:34;6.10;99.90
47482;DHT22;33219;47.410;9.730;2023-11-22T03:40:01;6.10;99.90
47482;DHT22;33219;47.410;9.730;2023-11-22T03:42:28;6.10;99.90
47482;DHT22;33219;47.410;9.730;2023-11-22T03:44:55;6.10;99.90
47482;DHT22;33219;47.410;9.730;2023-11-22T03:47:24;6.10;99.90
47482;DHT22;33219;47.410;9.730;2023-11-22T03:49:51;6.10;99.90
47482;DHT22;33219;47.410;9.730;2023-11-22T03:52:18;6.10;99.90
47482;DHT22;33219;47.410;9.730;2023-11-22T03:54:45;6.10;99.90
47482;DHT22;33219;47.410;9.730;2023-11-22T03:57:12;6.10;99.90
47482;DHT22;33219;47.410;9.730;2023-11-22T03:59:40;6.10;99.90
47482;DHT22;33219;47.410;9.730;2023-11-22T04:02:07;6.10;99.90
47482;DHT22;33219;47.410;9.730;2023-11-22T04:04:34;6.10;99.90
47482;DHT22;33219;47.410;9.730;2023-11-22T04:07:02;6.10;99.90
47482;DHT22;33219;47.410;9.730;2023-11-22T04:09:29;6.10;99.90
47482;DHT22;33219;47.410;9.730;2023-11-22T04:11:56;6.10;99.90
47482;DHT22;33219;47.410;9.730;2023-11-22T04:14:23;6.10;99.90
47482;DHT22;33219;47.410;9.730;2023-11-22T04:16:52;6.10;99.90
47482;DHT22;33219;47.410;9.730;2023-11-22T04:19:19;6.10;99.90
47482;DHT22;33219;47.410;9.730;2023-11-22T04:21:46;6.10;99.90
47482;DHT22;33219;47.410;9.730;2023-11-22T04:24:12;6.10;99.90
47482;DHT22;33219;47.410;9.730;2023-11-22T04:26:39;6.00;99.90
47482;DHT22;33219;47.410;9.730;2023-11-22T04:29:07;6.00;99.90
47482;DHT22;33219;47.410;9.730;2023-11-22T04:31:34;6.00;99.90
47482;DHT22;33219;47.410;9.730;2023-11-22T04:34:00;6.00;99.90
47482;DHT22;33219;47.410;9.730;2023-11-22T04:36:28;6.00;99.90
47482;DHT22;33219;47.410;9.730;2023-11-22T04:38:55;6.00;99.90
47482;DHT22;33219;47.410;9.730;2023-11-22T04:41:22;6.00;99.90
47482;DHT22;33219;47.410;9.730;2023-11-22T04:43:50;6.00;99.90
47482;DHT22;33219;47.410;9.730;2023-11-22T04:46:18;6.00;99.90
47482;DHT22;33219;47.410;9.730;2023-11-22T04:48:45;6.00;99.90
47482;DHT22;33219;47.410;9.730;2023-11-22T04:51:14;6.00;99.90
47482;DHT22;33219;47.410;9.730;2023-11-22T04:53:42;6.00;99.90
47482;DHT22;33219;47.410;9.730;2023-11-22T04:56:10;6.00;99.90
47482;DHT22;33219;47.410;9.730;2023-11-22T04:58:37;5.90;99.90
47482;DHT22;33219;47.410;9.730;2023-11-22T05:01:03;5.90;99.90
47482;DHT22;33219;47.410;9.730;2023-11-22T05:03:30;5.90;99.90
47482;DHT22;33219;47.410;9.730;2023-11-22T05:05:57;5.90;99.90
47482;DHT22;33219;47.410;9.730;2023-11-22T05:08:24;5.90;99.90
47482;DHT22;33219;47.410;9.730;2023-11-22T05:10:51;5.90;99.90
47482;DHT22;33219;47.410;9.730;2023-11-22T05:13:18;5.90;99.90
47482;DHT22;33219;47.410;9.730;2023-11-22T05:15:44;5.90;99.90
47482;DHT22;33219;47.410;9.730;2023-11-22T05:18:12;5.90;99.90
47482;DHT22;33219;47.410;9.730;2023-11-22T05:20:39;5.90;99.90
47482;DHT22;33219;47.410;9.730;2023-11-22T05:23:06;5.90;99.90
47482;DHT22;33219;47.410;9.730;2023-11-22T05:25:33;5.90;99.90
47482;DHT22;33219;47.410;9.730;2023-11-22T05:28:00;5.90;99.90
47482;DHT22;33219;47.410;9.730;2023-11-22T05:30:28;5.90;99.90
47482;DHT22;33219;47.410;9.730;2023-11-22T05:32:56;5.90;99.90
47482;DHT22;33219;47.410;9.730;2023-11-22T05:35:23;5.90;99.90
47482;DHT22;33219;47.410;9.730;2023-11-22T05:37:50;5.90;99.90
47482;DHT22;33219;47.410;9.730;2023-11-22T05:40:17;5.90;99.90
47482;DHT22;33219;47.410;9.730;2023-11-22T05:42:44;5.90;99.90
47482;DHT22;33219;47.410;9.730;2023-11-22T05:45:11;5.90;99.90
47482;DHT22;33219;47.410;9.730;2023-11-22T05:47:38;5.90;99.90
47482;DHT22;33219;47.410;9.730;2023-11-22T05:50:05;5.90;99.90
47482;DHT22;33219;47.410;9.730;2023-11-22T05:52:32;6.00;99.90
47482;DHT22;33219;47.410;9.730;2023-11-22T05:54:58;6.00;99.90
47482;DHT22;33219;47.410;9.730;2023-11-22T05:57:27;6.00;99.90
47482;DHT22;33219;47.410;9.730;2023-11-22T05:59:54;6.00;99.90
47482;DHT22;33219;47.410;9.730;2023-11-22T06:02:21;6.00;99.90
47482;DHT22;33219;47.410;9.730;2023-11-22T06:04:47;6.00;99.90
47482;DHT22;33219;47.410;9.730;2023-11-22T06:07:14;6.10;99.90
47482;DHT22;33219;47.410;9.730;2023-11-22T06:09:41;6.10;99.90
47482;DHT22;33219;47.410;9.730;2023-11-22T06:12:08;6.00;99.90
47482;DHT22;33219;47.410;9.730;2023-11-22T06:14:35;6.00;99.90
47482;DHT22;33219;47.410;9.730;2023-11-22T06:17:02;6.00;99.90
47482;DHT22;33219;47.410;9.730;2023-11-22T06:19:29;6.00;99.90
47482;DHT22;33219;47.410;9.730;2023-11-22T06:21:56;6.00;99.90
47482;DHT22;33219;47.410;9.730;2023-11-22T06:24:23;6.00;99.90
47482;DHT22;33219;47.410;9.730;2023-11-22T06:26:52;6.00;99.90
47482;DHT22;33219;47.410;9.730;2023-11-22T06:29:18;6.00;99.90
47482;DHT22;33219;47.410;9.730;2023-11-22T06:31:46;6.00;99.90
47482;DHT22;33219;47.410;9.730;2023-11-22T06:34:14;6.00;99.90
47482;DHT22;33219;47.410;9.730;2023-11-22T06:36:42;6.00;99.90
47482;DHT22;33219;47.410;9.730;2023-11-22T06:44:53;6.00;99.90
47482;DHT22;33219;47.410;9.730;2023-11-22T06:53:23;6.00;99.90
47482;DHT22;33219;47.410;9.730;2023-11-22T06:55:57;6.00;99.90
47482;DHT22;33219;47.410;9.730;2023-11-22T06:58:32;6.10;99.90
47482;DHT22;33219;47.410;9.730;2023-11-22T07:01:10;6.10;99.90
47482;DHT22;33219;47.410;9.730;2023-11-22T07:06:35;6.10;99.90
47482;DHT22;33219;47.410;9.730;2023-11-22T07:09:18;6.00;99.90
47482;DHT22;33219;47.410;9.730;2023-11-22T07:11:52;6.10;99.90
47482;DHT22;33219;47.410;9.730;2023-11-22T07:14:24;6.10;99.90
47482;DHT22;33219;47.410;9.730;2023-11-22T07:19:53;6.10;99.90
47482;DHT22;33219;47.410;9.730;2023-11-22T07:22:26;6.10;99.90
47482;DHT22;33219;47.410;9.730;2023-11-22T07:25:09;6.10;99.90
47482;DHT22;33219;47.410;9.730;2023-11-22T07:27:51;6.00;99.90
47482;DHT22;33219;47.410;9.730;2023-11-22T07:30:28;5.80;99.90
47482;DHT22;33219;47.410;9.730;2023-11-22T07:35:43;5.50;99.90
47482;DHT22;33219;47.410;9.730;2023-11-22T07:41:15;5.30;99.90
47482;DHT22;33219;47.410;9.730;2023-11-22T07:52:25;5.20;99.90
47482;DHT22;33219;47.410;9.730;2023-11-22T07:55:07;5.20;99.90
47482;DHT22;33219;47.410;9.730;2023-11-22T08:03:45;5.10;99.90
47482;DHT22;33219;47.410;9.730;2023-11-22T08:07:01;5.10;99.90
47482;DHT22;33219;47.410;9.730;2023-11-22T08:08:55;5.00;99.90
47482;DHT22;33219;47.410;9.730;2023-11-22T08:11:28;5.00;99.90
47482;DHT22;33219;47.410;9.730;2023-11-22T08:16:44;4.80;99.90
47482;DHT22;33219;47.410;9.730;2023-11-22T08:19:16;4.80;99.90
47482;DHT22;33219;47.410;9.730;2023-11-22T08:21:47;4.80;99.90
47482;DHT22;33219;47.410;9.730;2023-11-22T08:24:19;4.80;99.90
47482;DHT22;33219;47.410;9.730;2023-11-22T08:27:16;4.80;99.90
47482;DHT22;33219;47.410;9.730;2023-11-22T08:29:43;4.90;99.90
47482;DHT22;33219;47.410;9.730;2023-11-22T08:32:15;5.00;99.90
47482;DHT22;33219;47.410;9.730;2023-11-22T08:35:02;4.90;99.90
47482;DHT22;33219;47.410;9.730;2023-11-22T08:37:38;4.90;99.90
47482;DHT22;33219;47.410;9.730;2023-11-22T08:40:21;5.00;99.90
47482;DHT22;33219;47.410;9.730;2023-11-22T08:42:51;4.90;99.90
47482;DHT22;33219;47.410;9.730;2023-11-22T08:45:26;5.00;99.90
47482;DHT22;33219;47.410;9.730;2023-11-22T08:48:04;4.90;99.90
47482;DHT22;33219;47.410;9.730;2023-11-22T08:50:37;5.00;99.90
47482;DHT22;33219;47.410;9.730;2023-11-22T08:53:14;5.10;99.90
47482;DHT22;33219;47.410;9.730;2023-11-22T09:13:29;5.10;99.90
47482;DHT22;33219;47.410;9.730;2023-11-22T09:16:03;5.10;99.90
47482;DHT22;33219;47.410;9.730;2023-11-22T09:24:21;5.10;99.90
47482;DHT22;33219;47.410;9.730;2023-11-22T09:26:54;5.10;99.90
47482;DHT22;33219;47.410;9.730;2023-11-22T09:32:41;5.10;99.90
47482;DHT22;33219;47.410;9.730;2023-11-22T09:35:15;5.10;99.90
47482;DHT22;33219;47.410;9.730;2023-11-22T09:37:52;5.10;99.90
47482;DHT22;33219;47.410;9.730;2023-11-22T09:43:11;5.20;99.90
47482;DHT22;33219;47.410;9.730;2023-11-22T09:48:53;5.30;99.90
47482;DHT22;33219;47.410;9.730;2023-11-22T09:51:28;5.40;99.90
47482;DHT22;33219;47.410;9.730;2023-11-22T09:54:09;5.40;99.90
47482;DHT22;33219;47.410;9.730;2023-11-22T09:56:41;5.40;99.90
47482;DHT22;33219;47.410;9.730;2023-11-22T09:59:13;5.50;99.90
47482;DHT22;33219;47.410;9.730;2023-11-22T10:01:44;5.40;99.90
47482;DHT22;33219;47.410;9.730;2023-11-22T10:04:16;5.50;99.90
47482;DHT22;33219;47.410;9.730;2023-11-22T10:06:47;5.60;99.90
47482;DHT22;33219;47.410;9.730;2023-11-22T10:09:19;5.70;99.90
47482;DHT22;33219;47.410;9.730;2023-11-22T10:12:04;5.80;99.90
47482;DHT22;33219;47.410;9.730;2023-11-22T10:14:36;5.80;99.90
47482;DHT22;33219;47.410;9.730;2023-11-22T10:17:08;5.90;99.90
47482;DHT22;33219;47.410;9.730;2023-11-22T10:19:39;5.90;99.90
47482;DHT22;33219;47.410;9.730;2023-11-22T10:22:20;5.60;99.90
47482;DHT22;33219;47.410;9.730;2023-11-22T10:25:03;5.40;99.90
47482;DHT22;33219;47.410;9.730;2023-11-22T10:27:35;5.50;99.90
47482;DHT22;33219;47.410;9.730;2023-11-22T10:33:09;5.40;99.90
47482;DHT22;33219;47.410;9.730;2023-11-22T10:35:46;5.50;99.90
47482;DHT22;33219;47.410;9.730;2023-11-22T10:41:10;5.40;99.90
47482;DHT22;33219;47.410;9.730;2023-11-22T10:43:41;5.40;99.90
47482;DHT22;33219;47.410;9.730;2023-11-22T10:46:17;5.50;99.90
47482;DHT22;33219;47.410;9.730;2023-11-22T10:48:50;5.40;99.90
47482;DHT22;33219;47.410;9.730;2023-11-22T10:51:30;5.50;99.90
47482;DHT22;33219;47.410;9.730;2023-11-22T10:54:02;5.60;99.90
47482;DHT22;33219;47.410;9.730;2023-11-22T10:59:28;5.70;99.90
47482;DHT22;33219;47.410;9.730;2023-11-22T11:10:16;5.90;99.90
47482;DHT22;33219;47.410;9.730;2023-11-22T11:13:10;5.90;99.90
47482;DHT22;33219;47.410;9.730;2023-11-22T11:15:32;6.00;99.90
47482;DHT22;33219;47.410;9.730;2023-11-22T11:18:03;5.90;99.90
47482;DHT22;33219;47.410;9.730;2023-11-22T11:23:21;6.00;99.90
47482;DHT22;33219;47.410;9.730;2023-11-22T11:28:42;5.80;99.90
47482;DHT22;33219;47.410;9.730;2023-11-22T11:31:17;5.70;99.90
47482;DHT22;33219;47.410;9.730;2023-11-22T11:36:25;5.60;99.90
47482;DHT22;33219;47.410;9.730;2023-11-22T11:38:54;5.60;99.90
47482;DHT22;33219;47.410;9.730;2023-11-22T11:41:28;5.60;99.90
47482;DHT22;33219;47.410;9.730;2023-11-22T11:43:53;5.60;99.90
47482;DHT22;33219;47.410;9.730;2023-11-22T11:46:19;5.70;99.90
47482;DHT22;33219;47.410;9.730;2023-11-22T11:48:52;5.60;99.90
47482;DHT22;33219;47.410;9.730;2023-11-22T11:51:20;5.50;99.90
47482;DHT22;33219;47.410;9.730;2023-11-22T11:53:48;5.50;99.90
47482;DHT22;33219;47.410;9.730;2023-11-22T11:56:17;5.50;99.90
47482;DHT22;33219;47.410;9.730;2023-11-22T11:58:45;5.50;99.90
47482;DHT22;33219;47.410;9.730;2023-11-22T12:01:13;5.40;99.90
47482;DHT22;33219;47.410;9.730;2023-11-22T12:03:42;5.40;99.90
47482;DHT22;33219;47.410;9.730;2023-11-22T12:06:09;5.40;99.90
47482;DHT22;33219;47.410;9.730;2023-11-22T12:08:36;5.40;99.90
47482;DHT22;33219;47.410;9.730;2023-11-22T12:11:04;5.40;99.90
47482;DHT22;33219;47.410;9.730;2023-11-22T12:13:34;5.40;99.90
47482;DHT22;33219;47.410;9.730;2023-11-22T12:16:07;5.40;99.90
47482;DHT22;33219;47.410;9.730;2023-11-22T12:18:50;5.40;99.90
47482;DHT22;33219;47.410;9.730;2023-11-22T12:21:20;5.30;99.90
47482;DHT22;33219;47.410;9.730;2023-11-22T12:23:48;5.30;99.90
47482;DHT22;33219;47.410;9.730;2023-11-22T12:26:16;5.30;99.90
47482;DHT22;33219;47.410;9.730;2023-11-22T12:28:57;5.30;99.90
47482;DHT22;33219;47.410;9.730;2023-11-22T12:31:28;5.30;99.90
47482;DHT22;33219;47.410;9.730;2023-11-22T12:33:59;5.20;99.90
47482;DHT22;33219;47.410;9.730;2023-11-22T12:36:33;5.30;99.90
47482;DHT22;33219;47.410;9.730;2023-11-22T12:39:02;5.30;99.90
47482;DHT22;33219;47.410;9.730;2023-11-22T12:41:31;5.30;99.90
47482;DHT22;33219;47.410;9.730;2023-11-22T12:44:03;5.30;99.90
47482;DHT22;33219;47.410;9.730;2023-11-22T12:47:37;5.30;99.90
47482;DHT22;33219;47.410;9.730;2023-11-22T12:49:17;5.20;99.90
47482;DHT22;33219;47.410;9.730;2023-11-22T12:51:57;5.30;99.90
47482;DHT22;33219;47.410;9.730;2023-11-22T12:54:20;5.30;99.90
47482;DHT22;33219;47.410;9.730;2023-11-22T12:57:02;5.30;99.90
47482;DHT22;33219;47.410;9.730;2023-11-22T12:59:30;5.30;99.90
47482;DHT22;33219;47.410;9.730;2023-11-22T13:01:59;5.20;99.90
47482;DHT22;33219;47.410;9.730;2023-11-22T13:04:26;5.20;99.90
47482;DHT22;33219;47.410;9.730;2023-11-22T13:06:54;5.20;99.90
47482;DHT22;33219;47.410;9.730;2023-11-22T13:09:22;5.20;99.90
47482;DHT22;33219;47.410;9.730;2023-11-22T13:11:51;5.20;99.90
47482;DHT22;33219;47.410;9.730;2023-11-22T13:14:20;5.20;99.90
47482;DHT22;33219;47.410;9.730;2023-11-22T13:16:50;5.20;99.90
47482;DHT22;33219;47.410;9.730;2023-11-22T13:19:21;5.20;99.90
47482;DHT22;33219;47.410;9.730;2023-11-22T13:21:55;5.20;99.90
47482;DHT22;33219;47.410;9.730;2023-11-22T13:24:25;5.20;99.90
47482;DHT22;33219;47.410;9.730;2023-11-22T13:26:58;5.20;99.90
47482;DHT22;33219;47.410;9.730;2023-11-22T13:29:29;5.10;99.90
47482;DHT22;33219;47.410;9.730;2023-11-22T13:31:56;5.00;99.90
47482;DHT22;33219;47.410;9.730;2023-11-22T13:34:26;5.00;99.90
47482;DHT22;33219;47.410;9.730;2023-11-22T13:36:56;5.10;99.90
47482;DHT22;33219;47.410;9.730;2023-11-22T13:39:26;5.00;99.90
47482;DHT22;33219;47.410;9.730;2023-11-22T13:42:00;5.00;99.90
47482;DHT22;33219;47.410;9.730;2023-11-22T13:44:31;5.00;99.90
47482;DHT22;33219;47.410;9.730;2023-11-22T13:47:02;5.00;99.90
47482;DHT22;33219;47.410;9.730;2023-11-22T13:49:32;5.00;99.90
47482;DHT22;33219;47.410;9.730;2023-11-22T13:52:07;5.00;99.90
47482;DHT22;33219;47.410;9.730;2023-11-22T13:54:34;5.00;99.90
47482;DHT22;33219;47.410;9.730;2023-11-22T13:57:09;5.00;99.90
47482;DHT22;33219;47.410;9.730;2023-11-22T13:59:35;5.00;99.90
47482;DHT22;33219;47.410;9.730;2023-11-22T14:02:08;4.90;99.90
47482;DHT22;33219;47.410;9.730;2023-11-22T14:04:40;4.90;99.90
47482;DHT22;33219;47.410;9.730;2023-11-22T14:07:12;4.90;99.90
47482;DHT22;33219;47.410;9.730;2023-11-22T14:09:45;4.90;99.90
47482;DHT22;33219;47.410;9.730;2023-11-22T14:12:19;4.90;99.90
47482;DHT22;33219;47.410;9.730;2023-11-22T14:14:47;4.90;99.90
47482;DHT22;33219;47.410;9.730;2023-11-22T14:17:22;4.90;99.90
47482;DHT22;33219;47.410;9.730;2023-11-22T14:19:50;4.80;99.90
47482;DHT22;33219;47.410;9.730;2023-11-22T14:22:17;4.90;99.90
47482;DHT22;33219;47.410;9.730;2023-11-22T14:24:44;4.80;99.90
47482;DHT22;33219;47.410;9.730;2023-11-22T14:27:13;4.80;99.90
47482;DHT22;33219;47.410;9.730;2023-11-22T14:29:40;4.70;99.90
47482;DHT22;33219;47.410;9.730;2023-11-22T14:32:08;4.70;99.90
47482;DHT22;33219;47.410;9.730;2023-11-22T14:34:35;4.70;99.90
47482;DHT22;33219;47.410;9.730;2023-11-22T14:37:02;4.60;99.90
47482;DHT22;33219;47.410;9.730;2023-11-22T14:39:29;4.60;99.90
47482;DHT22;33219;47.410;9.730;2023-11-22T14:41:56;4.60;99.90
47482;DHT22;33219;47.410;9.730;2023-11-22T14:44:23;4.60;99.90
47482;DHT22;33219;47.410;9.730;2023-11-22T14:46:50;4.60;99.90
47482;DHT22;33219;47.410;9.730;2023-11-22T14:49:17;4.60;99.90
47482;DHT22;33219;47.410;9.730;2023-11-22T14:51:45;4.60;99.90
47482;DHT22;33219;47.410;9.730;2023-11-22T14:54:12;4.50;99.90
47482;DHT22;33219;47.410;9.730;2023-11-22T14:56:39;4.50;99.90
47482;DHT22;33219;47.410;9.730;2023-11-22T14:59:06;4.50;99.90
47482;DHT22;33219;47.410;9.730;2023-11-22T15:01:33;4.40;99.90
47482;DHT22;33219;47.410;9.730;2023-11-22T15:04:00;4.40;99.90
47482;DHT22;33219;47.410;9.730;2023-11-22T15:06:27;4.30;99.90
47482;DHT22;33219;47.410;9.730;2023-11-22T15:08:54;4.40;99.90
47482;DHT22;33219;47.410;9.730;2023-11-22T15:11:23;4.40;99.90
47482;DHT22;33219;47.410;9.730;2023-11-22T15:13:49;4.40;99.90
47482;DHT22;33219;47.410;9.730;2023-11-22T15:16:16;4.40;99.90
47482;DHT22;33219;47.410;9.730;2023-11-22T15:18:44;4.30;99.90
47482;DHT22;33219;47.410;9.730;2023-11-22T15:21:11;4.30;99.90
47482;DHT22;33219;47.410;9.730;2023-11-22T15:23:39;4.20;99.90
47482;DHT22;33219;47.410;9.730;2023-11-22T15:26:06;4.20;99.90
47482;DHT22;33219;47.410;9.730;2023-11-22T15:28:36;4.10;99.90
47482;DHT22;33219;47.410;9.730;2023-11-22T15:31:02;4.10;99.90
47482;DHT22;33219;47.410;9.730;2023-11-22T15:33:29;4.10;99.90
47482;DHT22;33219;47.410;9.730;2023-11-22T15:35:56;4.10;99.90
47482;DHT22;33219;47.410;9.730;2023-11-22T15:38:23;4.10;99.90
47482;DHT22;33219;47.410;9.730;2023-11-22T15:40:50;4.10;99.90
47482;DHT22;33219;47.410;9.730;2023-11-22T15:43:17;4.10;99.90
47482;DHT22;33219;47.410;9.730;2023-11-22T15:45:44;4.00;99.90
47482;DHT22;33219;47.410;9.730;2023-11-22T15:48:11;4.00;99.90
47482;DHT22;33219;47.410;9.730;2023-11-22T15:50:39;4.00;99.90
47482;DHT22;33219;47.410;9.730;2023-11-22T15:53:06;4.00;99.90
47482;DHT22;33219;47.410;9.730;2023-11-22T15:55:35;3.90;99.90
47482;DHT22;33219;47.410;9.730;2023-11-22T15:58:01;3.90;99.90
47482;DHT22;33219;47.410;9.730;2023-11-22T16:00:28;3.90;99.90
47482;DHT22;33219;47.410;9.730;2023-11-22T16:02:56;3.90;99.90
47482;DHT22;33219;47.410;9.730;2023-11-22T16:05:24;3.90;99.90
47482;DHT22;33219;47.410;9.730;2023-11-22T16:07:50;3.90;99.90
47482;DHT22;33219;47.410;9.730;2023-11-22T16:10:17;3.80;99.90
47482;DHT22;33219;47.410;9.730;2023-11-22T16:12:45;3.80;99.90
47482;DHT22;33219;47.410;9.730;2023-11-22T16:15:12;3.80;99.90
47482;DHT22;33219;47.410;9.730;2023-11-22T16:17:38;3.80;99.90
47482;DHT22;33219;47.410;9.730;2023-11-22T16:20:05;3.70;99.90
47482;DHT22;33219;47.410;9.730;2023-11-22T16:22:34;3.70;99.90
47482;DHT22;33219;47.410;9.730;2023-11-22T16:25:03;3.70;99.90
47482;DHT22;33219;47.410;9.730;2023-11-22T16:27:29;3.70;99.90
47482;DHT22;33219;47.410;9.730;2023-11-22T16:29:56;3.60;99.90
47482;DHT22;33219;47.410;9.730;2023-11-22T16:32:24;3.60;99.90
47482;DHT22;33219;47.410;9.730;2023-11-22T16:34:50;3.60;99.90
47482;DHT22;33219;47.410;9.730;2023-11-22T16:37:17;3.70;99.90
47482;DHT22;33219;47.410;9.730;2023-11-22T16:39:44;3.60;99.90
47482;DHT22;33219;47.410;9.730;2023-11-22T16:42:11;3.70;99.90
47482;DHT22;33219;47.410;9.730;2023-11-22T16:44:39;3.60;99.90
47482;DHT22;33219;47.410;9.730;2023-11-22T16:47:12;3.70;99.90
47482;DHT22;33219;47.410;9.730;2023-11-22T16:49:43;3.60;99.90
47482;DHT22;33219;47.410;9.730;2023-11-22T16:52:13;3.60;99.90
47482;DHT22;33219;47.410;9.730;2023-11-22T16:54:40;3.70;99.90
47482;DHT22;33219;47.410;9.730;2023-11-22T16:57:08;3.60;99.90
47482;DHT22;33219;47.410;9.730;2023-11-22T16:59:36;3.60;99.90
47482;DHT22;33219;47.410;9.730;2023-11-22T17:02:05;3.60;99.90
47482;DHT22;33219;47.410;9.730;2023-11-22T17:04:32;3.60;99.90
47482;DHT22;33219;47.410;9.730;2023-11-22T17:06:59;3.60;99.90
47482;DHT22;33219;47.410;9.730;2023-11-22T17:09:26;3.60;99.90
47482;DHT22;33219;47.410;9.730;2023-11-22T17:11:52;3.60;99.90
47482;DHT22;33219;47.410;9.730;2023-11-22T17:14:19;3.60;99.90
47482;DHT22;33219;47.410;9.730;2023-11-22T17:16:46;3.60;99.90
47482;DHT22;33219;47.410;9.730;2023-11-22T17:19:13;3.50;99.90
47482;DHT22;33219;47.410;9.730;2023-11-22T17:21:40;3.50;99.90
47482;DHT22;33219;47.410;9.730;2023-11-22T17:24:07;3.60;99.90
47482;DHT22;33219;47.410;9.730;2023-11-22T17:26:35;3.50;99.90
47482;DHT22;33219;47.410;9.730;2023-11-22T17:29:02;3.60;99.90
47482;DHT22;33219;47.410;9.730;2023-11-22T17:31:30;3.60;99.90
47482;DHT22;33219;47.410;9.730;2023-11-22T17:33:57;3.50;99.90
47482;DHT22;33219;47.410;9.730;2023-11-22T17:36:23;3.60;99.90